sensor_id;sensor_type;location;lat;lon;timestamp;P1;durP1;ratioP1;P2;durP2;ratioP2
75589;SDS011;64169;47.240;11.312;2023-03-13T00:00:33;15.07;;;5.60;;
75589;SDS011;64169;47.240;11.312;2023-03-13T00:02:59;15.70;;;6.20;;
75589;SDS011;64169;47.240;11.312;2023-03-13T00:05:24;16.13;;;5.95;;
75589;SDS011;64169;47.240;11.312;2023-03-13T00:07:50;19.80;;;6.47;;
75589;SDS011;64169;47.240;11.312;2023-03-13T00:10:15;17.42;;;6.60;;
75589;SDS011;64169;47.240;11.312;2023-03-13T00:12:41;24.65;;;6.93;;
75589;SDS011;64169;47.240;11.312;2023-03-13T00:15:06;29.70;;;8.35;;
75589;SDS011;64169;47.240;11.312;2023-03-13T00:17:32;17.95;;;7.22;;
75589;SDS011;64169;47.240;11.312;2023-03-13T00:19:58;80.88;;;11.20;;
75589;SDS011;64169;47.240;11.312;2023-03-13T00:22:23;115.07;;;13.15;;
75589;SDS011;64169;47.240;11.312;2023-03-13T00:24:48;51.25;;;8.48;;
75589;SDS011;64169;47.240;11.312;2023-03-13T00:27:14;19.88;;;6.45;;
75589;SDS011;64169;47.240;11.312;2023-03-13T00:29:39;24.70;;;6.65;;
75589;SDS011;64169;47.240;11.312;2023-03-13T00:32:05;79.93;;;8.77;;
75589;SDS011;64169;47.240;11.312;2023-03-13T00:34:30;25.10;;;7.13;;
75589;SDS011;64169;47.240;11.312;2023-03-13T00:36:56;70.68;;;9.50;;
75589;SDS011;64169;47.240;11.312;2023-03-13T00:39:21;15.20;;;5.70;;
75589;SDS011;64169;47.240;11.312;2023-03-13T00:41:47;20.77;;;6.68;;
75589;SDS011;64169;47.240;11.312;2023-03-13T00:44:12;37.55;;;7.03;;
75589;SDS011;64169;47.240;11.312;2023-03-13T00:46:38;24.27;;;6.45;;
75589;SDS011;64169;47.240;11.312;2023-03-13T00:49:04;54.55;;;9.48;;
75589;SDS011;64169;47.240;11.312;2023-03-13T00:51:29;21.02;;;7.20;;
75589;SDS011;64169;47.240;11.312;2023-03-13T00:53:56;30.08;;;8.07;;
75589;SDS011;64169;47.240;11.312;2023-03-13T00:56:24;126.35;;;16.35;;
75589;SDS011;64169;47.240;11.312;2023-03-13T00:58:50;14.90;;;5.53;;
75589;SDS011;64169;47.240;11.312;2023-03-13T01:01:22;16.05;;;5.32;;
75589;SDS011;64169;47.240;11.312;2023-03-13T01:03:54;11.93;;;4.38;;
75589;SDS011;64169;47.240;11.312;2023-03-13T01:08:47;13.35;;;4.28;;
75589;SDS011;64169;47.240;11.312;2023-03-13T01:11:13;14.07;;;4.20;;
75589;SDS011;64169;47.240;11.312;2023-03-13T01:13:40;44.60;;;8.40;;
75589;SDS011;64169;47.240;11.312;2023-03-13T01:16:07;15.63;;;4.55;;
75589;SDS011;64169;47.240;11.312;2023-03-13T01:18:35;16.80;;;5.47;;
75589;SDS011;64169;47.240;11.312;2023-03-13T01:21:01;65.63;;;7.28;;
75589;SDS011;64169;47.240;11.312;2023-03-13T01:23:27;29.38;;;5.60;;
75589;SDS011;64169;47.240;11.312;2023-03-13T01:25:53;91.80;;;8.13;;
75589;SDS011;64169;47.240;11.312;2023-03-13T01:28:20;44.45;;;6.40;;
75589;SDS011;64169;47.240;11.312;2023-03-13T01:30:45;26.85;;;4.90;;
75589;SDS011;64169;47.240;11.312;2023-03-13T01:33:11;30.15;;;8.65;;
75589;SDS011;64169;47.240;11.312;2023-03-13T01:35:36;40.05;;;5.78;;
75589;SDS011;64169;47.240;11.312;2023-03-13T01:38:01;25.35;;;4.53;;
75589;SDS011;64169;47.240;11.312;2023-03-13T01:40:27;57.55;;;6.30;;
75589;SDS011;64169;47.240;11.312;2023-03-13T01:42:54;21.63;;;4.70;;
75589;SDS011;64169;47.240;11.312;2023-03-13T01:50:58;19.30;;;5.15;;
75589;SDS011;64169;47.240;11.312;2023-03-13T01:53:24;10.98;;;4.05;;
75589;SDS011;64169;47.240;11.312;2023-03-13T01:55:50;13.43;;;4.10;;
75589;SDS011;64169;47.240;11.312;2023-03-13T01:58:16;26.85;;;7.18;;
75589;SDS011;64169;47.240;11.312;2023-03-13T02:00:42;35.17;;;5.63;;
75589;SDS011;64169;47.240;11.312;2023-03-13T02:03:10;14.70;;;4.75;;
75589;SDS011;64169;47.240;11.312;2023-03-13T02:05:37;20.92;;;5.45;;
75589;SDS011;64169;47.240;11.312;2023-03-13T02:11:09;12.75;;;3.60;;
75589;SDS011;64169;47.240;11.312;2023-03-13T02:13:41;37.78;;;6.10;;
75589;SDS011;64169;47.240;11.312;2023-03-13T02:16:07;40.38;;;6.43;;
75589;SDS011;64169;47.240;11.312;2023-03-13T02:18:32;35.20;;;6.55;;
75589;SDS011;64169;47.240;11.312;2023-03-13T02:21:03;90.55;;;9.85;;
75589;SDS011;64169;47.240;11.312;2023-03-13T02:23:36;41.20;;;5.65;;
75589;SDS011;64169;47.240;11.312;2023-03-13T02:26:06;42.35;;;5.70;;
75589;SDS011;64169;47.240;11.312;2023-03-13T02:28:35;32.05;;;5.47;;
75589;SDS011;64169;47.240;11.312;2023-03-13T02:31:03;28.10;;;4.47;;
75589;SDS011;64169;47.240;11.312;2023-03-13T02:33:29;15.85;;;5.18;;
75589;SDS011;64169;47.240;11.312;2023-03-13T02:35:57;35.83;;;5.55;;
75589;SDS011;64169;47.240;11.312;2023-03-13T02:38:24;43.60;;;5.32;;
75589;SDS011;64169;47.240;11.312;2023-03-13T02:40:51;17.33;;;3.60;;
75589;SDS011;64169;47.240;11.312;2023-03-13T02:43:25;9.45;;;3.08;;
75589;SDS011;64169;47.240;11.312;2023-03-13T02:46:13;10.98;;;3.10;;
75589;SDS011;64169;47.240;11.312;2023-03-13T02:48:48;9.57;;;3.50;;
75589;SDS011;64169;47.240;11.312;2023-03-13T02:54:06;8.90;;;2.80;;
75589;SDS011;64169;47.240;11.312;2023-03-13T02:56:34;8.95;;;3.20;;
75589;SDS011;64169;47.240;11.312;2023-03-13T02:59:01;9.48;;;3.40;;
75589;SDS011;64169;47.240;11.312;2023-03-13T03:01:26;11.50;;;3.75;;
75589;SDS011;64169;47.240;11.312;2023-03-13T03:03:51;8.68;;;2.75;;
75589;SDS011;64169;47.240;11.312;2023-03-13T03:06:17;6.20;;;1.98;;
75589;SDS011;64169;47.240;11.312;2023-03-13T03:08:42;7.13;;;1.90;;
75589;SDS011;64169;47.240;11.312;2023-03-13T03:11:08;6.85;;;2.50;;
75589;SDS011;64169;47.240;11.312;2023-03-13T03:13:33;7.20;;;2.33;;
75589;SDS011;64169;47.240;11.312;2023-03-13T03:16:04;7.18;;;2.22;;
75589;SDS011;64169;47.240;11.312;2023-03-13T03:18:30;7.45;;;2.38;;
75589;SDS011;64169;47.240;11.312;2023-03-13T03:20:55;7.53;;;2.08;;
75589;SDS011;64169;47.240;11.312;2023-03-13T03:23:21;6.45;;;2.03;;
75589;SDS011;64169;47.240;11.312;2023-03-13T03:25:46;10.05;;;2.70;;
75589;SDS011;64169;47.240;11.312;2023-03-13T03:28:12;6.95;;;2.00;;
75589;SDS011;64169;47.240;11.312;2023-03-13T03:30:37;8.25;;;2.45;;
75589;SDS011;64169;47.240;11.312;2023-03-13T03:33:02;7.57;;;2.35;;
75589;SDS011;64169;47.240;11.312;2023-03-13T03:35:28;8.98;;;2.33;;
75589;SDS011;64169;47.240;11.312;2023-03-13T03:37:54;8.55;;;2.03;;
75589;SDS011;64169;47.240;11.312;2023-03-13T03:40:19;4.30;;;1.58;;
75589;SDS011;64169;47.240;11.312;2023-03-13T03:42:45;6.80;;;1.90;;
75589;SDS011;64169;47.240;11.312;2023-03-13T03:45:11;6.97;;;2.00;;
75589;SDS011;64169;47.240;11.312;2023-03-13T03:47:36;4.30;;;1.67;;
75589;SDS011;64169;47.240;11.312;2023-03-13T03:50:02;6.28;;;1.95;;
75589;SDS011;64169;47.240;11.312;2023-03-13T03:52:28;4.70;;;1.60;;
75589;SDS011;64169;47.240;11.312;2023-03-13T03:54:53;5.82;;;2.00;;
75589;SDS011;64169;47.240;11.312;2023-03-13T03:57:19;4.95;;;1.70;;
75589;SDS011;64169;47.240;11.312;2023-03-13T03:59:44;7.25;;;2.47;;
75589;SDS011;64169;47.240;11.312;2023-03-13T04:02:09;8.80;;;2.83;;
75589;SDS011;64169;47.240;11.312;2023-03-13T04:04:35;9.98;;;3.20;;
75589;SDS011;64169;47.240;11.312;2023-03-13T04:07:01;7.20;;;2.45;;
75589;SDS011;64169;47.240;11.312;2023-03-13T04:09:26;5.90;;;1.83;;
75589;SDS011;64169;47.240;11.312;2023-03-13T04:11:51;4.45;;;1.33;;
75589;SDS011;64169;47.240;11.312;2023-03-13T04:14:17;4.22;;;1.40;;
75589;SDS011;64169;47.240;11.312;2023-03-13T04:16:42;3.00;;;1.20;;
75589;SDS011;64169;47.240;11.312;2023-03-13T04:19:08;3.05;;;1.00;;
75589;SDS011;64169;47.240;11.312;2023-03-13T04:21:33;5.35;;;1.67;;
75589;SDS011;64169;47.240;11.312;2023-03-13T04:23:58;7.70;;;2.17;;
75589;SDS011;64169;47.240;11.312;2023-03-13T04:26:24;7.55;;;2.20;;
75589;SDS011;64169;47.240;11.312;2023-03-13T04:28:49;7.43;;;2.38;;
75589;SDS011;64169;47.240;11.312;2023-03-13T04:31:15;5.60;;;1.70;;
75589;SDS011;64169;47.240;11.312;2023-03-13T04:33:40;6.20;;;1.70;;
75589;SDS011;64169;47.240;11.312;2023-03-13T04:36:05;3.20;;;0.98;;
75589;SDS011;64169;47.240;11.312;2023-03-13T04:38:31;5.10;;;1.40;;
75589;SDS011;64169;47.240;11.312;2023-03-13T04:40:56;4.47;;;1.27;;
75589;SDS011;64169;47.240;11.312;2023-03-13T04:43:22;5.07;;;1.50;;
75589;SDS011;64169;47.240;11.312;2023-03-13T04:45:47;5.90;;;2.03;;
75589;SDS011;64169;47.240;11.312;2023-03-13T04:48:18;5.72;;;2.08;;
75589;SDS011;64169;47.240;11.312;2023-03-13T04:50:43;7.13;;;1.73;;
75589;SDS011;64169;47.240;11.312;2023-03-13T04:53:09;7.72;;;2.13;;
75589;SDS011;64169;47.240;11.312;2023-03-13T04:55:34;7.50;;;1.55;;
75589;SDS011;64169;47.240;11.312;2023-03-13T04:58:00;9.32;;;2.58;;
75589;SDS011;64169;47.240;11.312;2023-03-13T05:00:25;16.67;;;4.07;;
75589;SDS011;64169;47.240;11.312;2023-03-13T05:02:50;15.98;;;4.10;;
75589;SDS011;64169;47.240;11.312;2023-03-13T05:05:16;13.73;;;4.15;;
75589;SDS011;64169;47.240;11.312;2023-03-13T05:07:41;7.03;;;1.88;;
75589;SDS011;64169;47.240;11.312;2023-03-13T05:10:07;5.55;;;1.80;;
75589;SDS011;64169;47.240;11.312;2023-03-13T05:12:32;7.65;;;1.75;;
75589;SDS011;64169;47.240;11.312;2023-03-13T05:14:58;6.47;;;3.10;;
75589;SDS011;64169;47.240;11.312;2023-03-13T05:17:23;5.90;;;1.70;;
75589;SDS011;64169;47.240;11.312;2023-03-13T05:19:49;4.88;;;1.60;;
75589;SDS011;64169;47.240;11.312;2023-03-13T05:22:14;5.93;;;2.20;;
75589;SDS011;64169;47.240;11.312;2023-03-13T05:24:39;6.78;;;2.05;;
75589;SDS011;64169;47.240;11.312;2023-03-13T05:27:05;8.70;;;2.55;;
75589;SDS011;64169;47.240;11.312;2023-03-13T05:29:30;8.20;;;2.97;;
75589;SDS011;64169;47.240;11.312;2023-03-13T05:31:56;9.48;;;2.50;;
75589;SDS011;64169;47.240;11.312;2023-03-13T05:34:21;6.18;;;2.17;;
75589;SDS011;64169;47.240;11.312;2023-03-13T05:36:46;6.72;;;2.20;;
75589;SDS011;64169;47.240;11.312;2023-03-13T05:39:12;3.38;;;1.38;;
75589;SDS011;64169;47.240;11.312;2023-03-13T05:41:37;4.05;;;1.15;;
75589;SDS011;64169;47.240;11.312;2023-03-13T05:44:03;4.70;;;1.48;;
75589;SDS011;64169;47.240;11.312;2023-03-13T05:46:28;4.32;;;1.27;;
75589;SDS011;64169;47.240;11.312;2023-03-13T05:48:54;3.80;;;1.30;;
75589;SDS011;64169;47.240;11.312;2023-03-13T05:51:20;5.32;;;1.77;;
75589;SDS011;64169;47.240;11.312;2023-03-13T05:53:46;4.82;;;1.88;;
75589;SDS011;64169;47.240;11.312;2023-03-13T05:56:11;3.85;;;1.20;;
75589;SDS011;64169;47.240;11.312;2023-03-13T05:58:36;4.28;;;1.35;;
75589;SDS011;64169;47.240;11.312;2023-03-13T06:01:05;2.88;;;1.08;;
75589;SDS011;64169;47.240;11.312;2023-03-13T06:03:34;2.28;;;0.70;;
75589;SDS011;64169;47.240;11.312;2023-03-13T06:06:00;3.40;;;1.10;;
75589;SDS011;64169;47.240;11.312;2023-03-13T06:08:25;3.25;;;0.90;;
75589;SDS011;64169;47.240;11.312;2023-03-13T06:10:51;2.05;;;0.60;;
75589;SDS011;64169;47.240;11.312;2023-03-13T06:13:17;2.55;;;0.77;;
75589;SDS011;64169;47.240;11.312;2023-03-13T06:15:42;1.58;;;0.82;;
75589;SDS011;64169;47.240;11.312;2023-03-13T06:18:08;1.55;;;0.68;;
75589;SDS011;64169;47.240;11.312;2023-03-13T06:20:33;2.53;;;0.77;;
75589;SDS011;64169;47.240;11.312;2023-03-13T06:22:59;2.92;;;0.75;;
75589;SDS011;64169;47.240;11.312;2023-03-13T06:25:24;2.40;;;0.75;;
75589;SDS011;64169;47.240;11.312;2023-03-13T06:27:50;3.22;;;0.88;;
75589;SDS011;64169;47.240;11.312;2023-03-13T06:30:15;3.47;;;0.90;;
75589;SDS011;64169;47.240;11.312;2023-03-13T06:32:41;2.33;;;0.82;;
75589;SDS011;64169;47.240;11.312;2023-03-13T06:35:06;1.83;;;0.70;;
75589;SDS011;64169;47.240;11.312;2023-03-13T06:37:32;2.63;;;0.95;;
75589;SDS011;64169;47.240;11.312;2023-03-13T06:39:58;4.57;;;1.30;;
75589;SDS011;64169;47.240;11.312;2023-03-13T06:42:23;2.95;;;1.00;;
75589;SDS011;64169;47.240;11.312;2023-03-13T06:44:49;3.08;;;1.17;;
75589;SDS011;64169;47.240;11.312;2023-03-13T06:47:14;4.53;;;1.20;;
75589;SDS011;64169;47.240;11.312;2023-03-13T06:49:39;5.50;;;1.65;;
75589;SDS011;64169;47.240;11.312;2023-03-13T06:52:05;7.28;;;1.85;;
75589;SDS011;64169;47.240;11.312;2023-03-13T06:54:30;5.13;;;1.30;;
75589;SDS011;64169;47.240;11.312;2023-03-13T06:56:56;3.70;;;1.20;;
75589;SDS011;64169;47.240;11.312;2023-03-13T06:59:21;5.88;;;1.70;;
75589;SDS011;64169;47.240;11.312;2023-03-13T07:01:46;3.42;;;1.02;;
75589;SDS011;64169;47.240;11.312;2023-03-13T07:04:12;2.28;;;0.70;;
75589;SDS011;64169;47.240;11.312;2023-03-13T07:06:38;4.00;;;1.08;;
75589;SDS011;64169;47.240;11.312;2023-03-13T07:09:03;5.57;;;0.80;;
75589;SDS011;64169;47.240;11.312;2023-03-13T07:11:29;3.40;;;1.15;;
75589;SDS011;64169;47.240;11.312;2023-03-13T07:13:55;2.35;;;0.90;;
75589;SDS011;64169;47.240;11.312;2023-03-13T07:16:20;2.85;;;0.80;;
75589;SDS011;64169;47.240;11.312;2023-03-13T07:18:46;2.33;;;0.80;;
75589;SDS011;64169;47.240;11.312;2023-03-13T07:21:12;2.33;;;1.00;;
75589;SDS011;64169;47.240;11.312;2023-03-13T07:23:37;2.60;;;0.77;;
75589;SDS011;64169;47.240;11.312;2023-03-13T07:26:04;2.00;;;0.70;;
75589;SDS011;64169;47.240;11.312;2023-03-13T07:28:31;1.98;;;0.73;;
75589;SDS011;64169;47.240;11.312;2023-03-13T07:31:14;2.63;;;0.95;;
75589;SDS011;64169;47.240;11.312;2023-03-13T07:33:40;3.83;;;1.10;;
75589;SDS011;64169;47.240;11.312;2023-03-13T07:36:06;7.40;;;1.98;;
75589;SDS011;64169;47.240;11.312;2023-03-13T07:38:32;6.55;;;1.98;;
75589;SDS011;64169;47.240;11.312;2023-03-13T07:40:58;5.72;;;2.10;;
75589;SDS011;64169;47.240;11.312;2023-03-13T07:43:24;6.70;;;2.40;;
75589;SDS011;64169;47.240;11.312;2023-03-13T07:45:54;8.02;;;2.28;;
75589;SDS011;64169;47.240;11.312;2023-03-13T07:48:25;6.90;;;1.90;;
75589;SDS011;64169;47.240;11.312;2023-03-13T07:50:53;5.82;;;1.65;;
75589;SDS011;64169;47.240;11.312;2023-03-13T07:53:19;6.10;;;1.33;;
75589;SDS011;64169;47.240;11.312;2023-03-13T07:55:54;3.30;;;1.15;;
75589;SDS011;64169;47.240;11.312;2023-03-13T07:58:20;4.05;;;1.70;;
75589;SDS011;64169;47.240;11.312;2023-03-13T08:00:46;3.08;;;0.90;;
75589;SDS011;64169;47.240;11.312;2023-03-13T08:03:12;3.72;;;1.00;;
75589;SDS011;64169;47.240;11.312;2023-03-13T08:05:37;3.65;;;1.05;;
75589;SDS011;64169;47.240;11.312;2023-03-13T08:08:03;4.90;;;1.55;;
75589;SDS011;64169;47.240;11.312;2023-03-13T08:10:29;4.68;;;1.88;;
75589;SDS011;64169;47.240;11.312;2023-03-13T08:12:55;6.82;;;2.22;;
75589;SDS011;64169;47.240;11.312;2023-03-13T08:15:20;5.63;;;2.00;;
75589;SDS011;64169;47.240;11.312;2023-03-13T08:17:50;6.55;;;2.00;;
75589;SDS011;64169;47.240;11.312;2023-03-13T08:20:18;6.75;;;2.35;;
75589;SDS011;64169;47.240;11.312;2023-03-13T08:22:44;8.50;;;3.28;;
75589;SDS011;64169;47.240;11.312;2023-03-13T08:25:14;9.10;;;3.03;;
75589;SDS011;64169;47.240;11.312;2023-03-13T08:27:40;6.95;;;2.90;;
75589;SDS011;64169;47.240;11.312;2023-03-13T08:30:06;5.50;;;1.70;;
75589;SDS011;64169;47.240;11.312;2023-03-13T08:32:32;3.63;;;1.15;;
75589;SDS011;64169;47.240;11.312;2023-03-13T08:34:58;3.10;;;0.90;;
75589;SDS011;64169;47.240;11.312;2023-03-13T08:37:24;5.03;;;1.50;;
75589;SDS011;64169;47.240;11.312;2023-03-13T08:39:49;3.92;;;1.20;;
75589;SDS011;64169;47.240;11.312;2023-03-13T08:42:15;2.05;;;0.70;;
75589;SDS011;64169;47.240;11.312;2023-03-13T08:44:40;2.75;;;0.75;;
75589;SDS011;64169;47.240;11.312;2023-03-13T08:47:06;2.70;;;0.57;;
75589;SDS011;64169;47.240;11.312;2023-03-13T08:49:32;2.88;;;0.70;;
75589;SDS011;64169;47.240;11.312;2023-03-13T08:51:57;2.13;;;0.70;;
75589;SDS011;64169;47.240;11.312;2023-03-13T08:54:23;4.65;;;1.00;;
75589;SDS011;64169;47.240;11.312;2023-03-13T08:56:48;3.22;;;1.00;;
75589;SDS011;64169;47.240;11.312;2023-03-13T08:59:14;3.33;;;1.02;;
75589;SDS011;64169;47.240;11.312;2023-03-13T09:01:40;4.28;;;1.30;;
75589;SDS011;64169;47.240;11.312;2023-03-13T09:04:06;4.13;;;1.15;;
75589;SDS011;64169;47.240;11.312;2023-03-13T09:06:32;2.88;;;1.00;;
75589;SDS011;64169;47.240;11.312;2023-03-13T09:08:58;4.57;;;1.38;;
75589;SDS011;64169;47.240;11.312;2023-03-13T09:11:24;4.00;;;1.40;;
75589;SDS011;64169;47.240;11.312;2023-03-13T09:13:49;4.85;;;1.63;;
75589;SDS011;64169;47.240;11.312;2023-03-13T09:16:19;4.35;;;1.63;;
75589;SDS011;64169;47.240;11.312;2023-03-13T09:18:46;5.60;;;2.17;;
75589;SDS011;64169;47.240;11.312;2023-03-13T09:21:12;5.75;;;2.00;;
75589;SDS011;64169;47.240;11.312;2023-03-13T09:23:42;5.03;;;1.80;;
75589;SDS011;64169;47.240;11.312;2023-03-13T09:26:08;5.25;;;2.05;;
75589;SDS011;64169;47.240;11.312;2023-03-13T09:28:34;5.05;;;1.92;;
75589;SDS011;64169;47.240;11.312;2023-03-13T09:31:12;4.75;;;1.40;;
75589;SDS011;64169;47.240;11.312;2023-03-13T09:33:38;5.88;;;1.60;;
75589;SDS011;64169;47.240;11.312;2023-03-13T09:36:05;5.40;;;1.40;;
75589;SDS011;64169;47.240;11.312;2023-03-13T09:38:31;5.10;;;1.55;;
75589;SDS011;64169;47.240;11.312;2023-03-13T09:41:00;5.07;;;1.85;;
75589;SDS011;64169;47.240;11.312;2023-03-13T09:46:05;5.68;;;1.95;;
75589;SDS011;64169;47.240;11.312;2023-03-13T09:48:36;3.90;;;1.20;;
75589;SDS011;64169;47.240;11.312;2023-03-13T09:51:10;6.60;;;1.83;;
75589;SDS011;64169;47.240;11.312;2023-03-13T09:56:23;6.05;;;1.80;;
75589;SDS011;64169;47.240;11.312;2023-03-13T09:58:52;6.10;;;2.58;;
75589;SDS011;64169;47.240;11.312;2023-03-13T10:01:19;7.32;;;2.42;;
75589;SDS011;64169;47.240;11.312;2023-03-13T10:06:45;5.55;;;1.50;;
75589;SDS011;64169;47.240;11.312;2023-03-13T10:09:15;4.15;;;1.50;;
75589;SDS011;64169;47.240;11.312;2023-03-13T10:11:43;6.00;;;1.80;;
75589;SDS011;64169;47.240;11.312;2023-03-13T10:14:14;7.15;;;2.47;;
75589;SDS011;64169;47.240;11.312;2023-03-13T10:19:40;4.60;;;1.30;;
75589;SDS011;64169;47.240;11.312;2023-03-13T10:22:15;5.32;;;1.60;;
75589;SDS011;64169;47.240;11.312;2023-03-13T10:27:52;4.93;;;1.65;;
75589;SDS011;64169;47.240;11.312;2023-03-13T10:30:21;5.25;;;1.40;;
75589;SDS011;64169;47.240;11.312;2023-03-13T10:32:49;5.75;;;1.70;;
75589;SDS011;64169;47.240;11.312;2023-03-13T10:35:24;5.60;;;1.75;;
75589;SDS011;64169;47.240;11.312;2023-03-13T10:38:01;5.43;;;2.05;;
75589;SDS011;64169;47.240;11.312;2023-03-13T10:40:28;5.97;;;1.60;;
75589;SDS011;64169;47.240;11.312;2023-03-13T10:43:01;3.83;;;1.27;;
75589;SDS011;64169;47.240;11.312;2023-03-13T10:45:33;3.05;;;0.88;;
75589;SDS011;64169;47.240;11.312;2023-03-13T10:50:30;6.57;;;1.50;;
75589;SDS011;64169;47.240;11.312;2023-03-13T10:52:57;4.43;;;1.48;;
75589;SDS011;64169;47.240;11.312;2023-03-13T10:55:23;5.68;;;1.40;;
75589;SDS011;64169;47.240;11.312;2023-03-13T10:57:54;4.20;;;1.05;;
75589;SDS011;64169;47.240;11.312;2023-03-13T11:00:30;2.83;;;1.00;;
75589;SDS011;64169;47.240;11.312;2023-03-13T11:02:57;4.90;;;1.10;;
75589;SDS011;64169;47.240;11.312;2023-03-13T11:05:30;3.45;;;0.93;;
75589;SDS011;64169;47.240;11.312;2023-03-13T11:08:25;9.63;;;1.85;;
75589;SDS011;64169;47.240;11.312;2023-03-13T11:10:56;4.53;;;1.52;;
75589;SDS011;64169;47.240;11.312;2023-03-13T11:13:38;3.53;;;1.10;;
75589;SDS011;64169;47.240;11.312;2023-03-13T11:21:29;4.68;;;1.35;;
75589;SDS011;64169;47.240;11.312;2023-03-13T11:27:11;2.75;;;0.90;;
75589;SDS011;64169;47.240;11.312;2023-03-13T11:32:42;2.17;;;0.80;;
75589;SDS011;64169;47.240;11.312;2023-03-13T11:35:33;6.10;;;1.27;;
75589;SDS011;64169;47.240;11.312;2023-03-13T11:37:59;2.60;;;0.80;;
75589;SDS011;64169;47.240;11.312;2023-03-13T11:43:08;3.58;;;0.85;;
75589;SDS011;64169;47.240;11.312;2023-03-13T11:56:57;1.83;;;0.70;;
75589;SDS011;64169;47.240;11.312;2023-03-13T12:01:59;1.15;;;0.40;;
75589;SDS011;64169;47.240;11.312;2023-03-13T12:04:38;2.92;;;0.90;;
75589;SDS011;64169;47.240;11.312;2023-03-13T12:07:20;2.30;;;0.70;;
75589;SDS011;64169;47.240;11.312;2023-03-13T12:09:49;3.08;;;0.70;;
75589;SDS011;64169;47.240;11.312;2023-03-13T12:20:42;2.67;;;0.75;;
75589;SDS011;64169;47.240;11.312;2023-03-13T12:31:16;2.47;;;0.75;;
75589;SDS011;64169;47.240;11.312;2023-03-13T12:36:21;2.25;;;0.77;;
75589;SDS011;64169;47.240;11.312;2023-03-13T12:41:41;2.85;;;0.80;;
75589;SDS011;64169;47.240;11.312;2023-03-13T12:44:09;2.40;;;0.70;;
75589;SDS011;64169;47.240;11.312;2023-03-13T13:00:06;2.65;;;0.80;;
75589;SDS011;64169;47.240;11.312;2023-03-13T13:02:38;2.83;;;0.90;;
75589;SDS011;64169;47.240;11.312;2023-03-13T13:05:04;3.08;;;0.80;;
75589;SDS011;64169;47.240;11.312;2023-03-13T13:07:33;2.80;;;0.88;;
75589;SDS011;64169;47.240;11.312;2023-03-13T13:12:35;2.13;;;0.80;;
75589;SDS011;64169;47.240;11.312;2023-03-13T13:20:41;3.05;;;0.70;;
75589;SDS011;64169;47.240;11.312;2023-03-13T13:23:24;2.70;;;0.80;;
75589;SDS011;64169;47.240;11.312;2023-03-13T13:37:01;3.10;;;0.90;;
75589;SDS011;64169;47.240;11.312;2023-03-13T13:39:51;3.15;;;0.93;;
75589;SDS011;64169;47.240;11.312;2023-03-13T13:45:44;3.30;;;0.90;;
75589;SDS011;64169;47.240;11.312;2023-03-13T13:47:50;2.72;;;0.90;;
75589;SDS011;64169;47.240;11.312;2023-03-13T13:52:43;2.70;;;0.90;;
75589;SDS011;64169;47.240;11.312;2023-03-13T13:55:29;3.50;;;0.70;;
75589;SDS011;64169;47.240;11.312;2023-03-13T13:58:03;3.17;;;1.00;;
75589;SDS011;64169;47.240;11.312;2023-03-13T14:00:34;3.05;;;0.80;;
75589;SDS011;64169;47.240;11.312;2023-03-13T14:03:10;2.53;;;0.70;;
75589;SDS011;64169;47.240;11.312;2023-03-13T14:05:43;3.20;;;0.85;;
75589;SDS011;64169;47.240;11.312;2023-03-13T14:08:23;1.70;;;0.70;;
75589;SDS011;64169;47.240;11.312;2023-03-13T14:14:38;4.80;;;0.90;;
75589;SDS011;64169;47.240;11.312;2023-03-13T14:16:46;1.98;;;0.70;;
75589;SDS011;64169;47.240;11.312;2023-03-13T14:22:00;4.05;;;1.00;;
75589;SDS011;64169;47.240;11.312;2023-03-13T14:24:29;3.70;;;1.10;;
75589;SDS011;64169;47.240;11.312;2023-03-13T14:26:55;3.03;;;0.93;;
75589;SDS011;64169;47.240;11.312;2023-03-13T14:29:21;4.15;;;1.85;;
75589;SDS011;64169;47.240;11.312;2023-03-13T14:31:53;4.88;;;1.85;;
75589;SDS011;64169;47.240;11.312;2023-03-13T14:34:20;3.65;;;1.10;;
75589;SDS011;64169;47.240;11.312;2023-03-13T14:36:53;3.38;;;0.98;;
75589;SDS011;64169;47.240;11.312;2023-03-13T14:40:05;4.78;;;1.55;;
75589;SDS011;64169;47.240;11.312;2023-03-13T14:44:40;3.70;;;0.95;;
75589;SDS011;64169;47.240;11.312;2023-03-13T14:47:15;2.95;;;0.90;;
75589;SDS011;64169;47.240;11.312;2023-03-13T14:49:47;2.58;;;0.90;;
75589;SDS011;64169;47.240;11.312;2023-03-13T14:52:14;2.97;;;0.90;;
75589;SDS011;64169;47.240;11.312;2023-03-13T14:54:54;38.80;;;17.85;;
75589;SDS011;64169;47.240;11.312;2023-03-13T14:57:22;4.57;;;1.23;;
75589;SDS011;64169;47.240;11.312;2023-03-13T14:59:49;4.15;;;1.00;;
75589;SDS011;64169;47.240;11.312;2023-03-13T15:05:02;2.78;;;0.82;;
75589;SDS011;64169;47.240;11.312;2023-03-13T15:07:36;3.88;;;1.05;;
75589;SDS011;64169;47.240;11.312;2023-03-13T15:10:17;3.95;;;1.02;;
75589;SDS011;64169;47.240;11.312;2023-03-13T15:12:43;3.50;;;1.02;;
75589;SDS011;64169;47.240;11.312;2023-03-13T15:15:09;4.10;;;1.05;;
75589;SDS011;64169;47.240;11.312;2023-03-13T15:17:35;5.30;;;1.50;;
75589;SDS011;64169;47.240;11.312;2023-03-13T15:20:00;8.77;;;1.55;;
75589;SDS011;64169;47.240;11.312;2023-03-13T15:22:33;3.63;;;1.15;;
75589;SDS011;64169;47.240;11.312;2023-03-13T15:25:00;3.88;;;1.20;;
75589;SDS011;64169;47.240;11.312;2023-03-13T15:27:26;3.85;;;1.10;;
75589;SDS011;64169;47.240;11.312;2023-03-13T15:29:52;3.92;;;1.02;;
75589;SDS011;64169;47.240;11.312;2023-03-13T15:32:21;3.53;;;1.17;;
75589;SDS011;64169;47.240;11.312;2023-03-13T15:34:47;4.10;;;1.23;;
75589;SDS011;64169;47.240;11.312;2023-03-13T15:37:13;5.15;;;1.15;;
75589;SDS011;64169;47.240;11.312;2023-03-13T15:39:39;4.75;;;1.40;;
75589;SDS011;64169;47.240;11.312;2023-03-13T15:42:05;5.43;;;1.58;;
75589;SDS011;64169;47.240;11.312;2023-03-13T15:44:31;6.15;;;1.70;;
75589;SDS011;64169;47.240;11.312;2023-03-13T15:46:56;7.50;;;2.45;;
75589;SDS011;64169;47.240;11.312;2023-03-13T15:49:22;6.07;;;1.40;;
75589;SDS011;64169;47.240;11.312;2023-03-13T15:51:47;5.40;;;1.63;;
75589;SDS011;64169;47.240;11.312;2023-03-13T15:54:12;3.58;;;1.10;;
75589;SDS011;64169;47.240;11.312;2023-03-13T15:56:38;3.20;;;1.13;;
75589;SDS011;64169;47.240;11.312;2023-03-13T15:59:13;4.43;;;1.20;;
75589;SDS011;64169;47.240;11.312;2023-03-13T16:01:40;4.05;;;1.20;;
75589;SDS011;64169;47.240;11.312;2023-03-13T16:04:06;4.30;;;1.10;;
75589;SDS011;64169;47.240;11.312;2023-03-13T16:06:31;6.45;;;1.45;;
75589;SDS011;64169;47.240;11.312;2023-03-13T16:09:01;5.60;;;1.50;;
75589;SDS011;64169;47.240;11.312;2023-03-13T16:11:29;3.97;;;1.30;;
75589;SDS011;64169;47.240;11.312;2023-03-13T16:13:55;7.03;;;2.80;;
75589;SDS011;64169;47.240;11.312;2023-03-13T16:16:22;6.03;;;2.13;;
75589;SDS011;64169;47.240;11.312;2023-03-13T16:18:52;7.65;;;1.70;;
75589;SDS011;64169;47.240;11.312;2023-03-13T16:21:22;4.57;;;1.23;;
75589;SDS011;64169;47.240;11.312;2023-03-13T16:23:49;5.78;;;1.45;;
75589;SDS011;64169;47.240;11.312;2023-03-13T16:26:20;4.13;;;1.00;;
75589;SDS011;64169;47.240;11.312;2023-03-13T16:28:46;4.45;;;1.30;;
75589;SDS011;64169;47.240;11.312;2023-03-13T16:31:23;10.60;;;2.30;;
75589;SDS011;64169;47.240;11.312;2023-03-13T16:33:53;4.53;;;1.20;;
75589;SDS011;64169;47.240;11.312;2023-03-13T16:36:20;5.53;;;1.42;;
75589;SDS011;64169;47.240;11.312;2023-03-13T16:38:51;8.07;;;1.67;;
75589;SDS011;64169;47.240;11.312;2023-03-13T16:41:20;5.28;;;1.40;;
75589;SDS011;64169;47.240;11.312;2023-03-13T16:43:47;8.60;;;2.30;;